Terminal Aerodrome Forecast
Issued by NWS

Home | Current Version | Previous Version | Text Only | Print | Product List | Glossary On
Versions: 1 2 3 4 5 6 7 8 9 10 11 12 13 14 15 16 17 18
000
FTUS46 KLOX 280500
TAFSBP
TAF
KSBP 280520Z 2806/2906 32006KT P6SM SKC
     FM280800 VRB03KT 5SM BR BKN004
     FM281500 31007KT P6SM SKC
     FM282000 31012G20KT P6SM SKC
     FM290300 31008KT P6SM SKC=

USA.gov is the U.S. government's official web portal to all federal, state and local government web resources and services.